sensor_id;sensor_type;location;lat;lon;timestamp;temperature;humidity
25200;DHT22;33094;48.782;9.162;2023-06-24T00:27:54;18.60;94.50
25200;DHT22;33094;48.782;9.162;2023-06-24T00:30:19;18.50;94.80
25200;DHT22;33094;48.782;9.162;2023-06-24T00:32:45;18.60;95.00
25200;DHT22;33094;48.782;9.162;2023-06-24T00:35:10;18.50;94.90
25200;DHT22;33094;48.782;9.162;2023-06-24T00:37:38;18.40;95.10
25200;DHT22;33094;48.782;9.162;2023-06-24T00:40:04;18.30;95.20
25200;DHT22;33094;48.782;9.162;2023-06-24T00:42:30;18.30;95.30
25200;DHT22;33094;48.782;9.162;2023-06-24T00:44:56;18.30;95.40
25200;DHT22;33094;48.782;9.162;2023-06-24T00:47:22;18.30;95.30
25200;DHT22;33094;48.782;9.162;2023-06-24T00:49:47;18.40;95.40
25200;DHT22;33094;48.782;9.162;2023-06-24T00:52:13;18.60;95.20
25200;DHT22;33094;48.782;9.162;2023-06-24T00:54:44;18.70;95.10
25200;DHT22;33094;48.782;9.162;2023-06-24T00:57:10;18.60;95.40
25200;DHT22;33094;48.782;9.162;2023-06-24T00:59:36;18.60;95.40
25200;DHT22;33094;48.782;9.162;2023-06-24T01:02:03;18.50;95.40
25200;DHT22;33094;48.782;9.162;2023-06-24T01:04:30;18.60;95.50
25200;DHT22;33094;48.782;9.162;2023-06-24T01:06:56;18.60;95.50
25200;DHT22;33094;48.782;9.162;2023-06-24T01:09:22;18.60;95.50
25200;DHT22;33094;48.782;9.162;2023-06-24T01:11:48;18.40;95.50
25200;DHT22;33094;48.782;9.162;2023-06-24T01:14:14;18.20;95.80
25200;DHT22;33094;48.782;9.162;2023-06-24T01:16:53;18.20;95.90
25200;DHT22;33094;48.782;9.162;2023-06-24T01:29:42;17.70;96.30
25200;DHT22;33094;48.782;9.162;2023-06-24T01:37:17;17.90;96.40
25200;DHT22;33094;48.782;9.162;2023-06-24T01:39:49;18.00;96.20
25200;DHT22;33094;48.782;9.162;2023-06-24T01:42:15;17.90;96.10
25200;DHT22;33094;48.782;9.162;2023-06-24T01:44:42;17.90;96.20
25200;DHT22;33094;48.782;9.162;2023-06-24T01:47:08;17.70;96.50
25200;DHT22;33094;48.782;9.162;2023-06-24T01:49:35;17.60;96.60
25200;DHT22;33094;48.782;9.162;2023-06-24T01:52:03;17.60;96.80
25200;DHT22;33094;48.782;9.162;2023-06-24T01:54:30;17.50;96.90
25200;DHT22;33094;48.782;9.162;2023-06-24T01:56:56;17.40;97.00
25200;DHT22;33094;48.782;9.162;2023-06-24T01:59:22;17.40;97.20
25200;DHT22;33094;48.782;9.162;2023-06-24T02:01:48;17.30;97.30
25200;DHT22;33094;48.782;9.162;2023-06-24T02:04:17;17.40;97.30
25200;DHT22;33094;48.782;9.162;2023-06-24T02:06:44;17.40;97.30
25200;DHT22;33094;48.782;9.162;2023-06-24T02:09:10;17.30;97.40
25200;DHT22;33094;48.782;9.162;2023-06-24T02:11:36;17.30;97.30
25200;DHT22;33094;48.782;9.162;2023-06-24T02:14:03;17.20;97.60
25200;DHT22;33094;48.782;9.162;2023-06-24T02:16:29;17.00;97.70
25200;DHT22;33094;48.782;9.162;2023-06-24T02:18:56;17.00;97.80
25200;DHT22;33094;48.782;9.162;2023-06-24T02:21:22;17.00;97.80
25200;DHT22;33094;48.782;9.162;2023-06-24T02:23:49;17.00;98.20
25200;DHT22;33094;48.782;9.162;2023-06-24T02:26:15;17.00;97.90
25200;DHT22;33094;48.782;9.162;2023-06-24T02:28:41;17.00;97.90
25200;DHT22;33094;48.782;9.162;2023-06-24T02:31:07;16.90;98.10
25200;DHT22;33094;48.782;9.162;2023-06-24T02:33:34;17.00;98.10
25200;DHT22;33094;48.782;9.162;2023-06-24T02:36:00;16.90;98.20
25200;DHT22;33094;48.782;9.162;2023-06-24T02:38:25;16.90;98.30
25200;DHT22;33094;48.782;9.162;2023-06-24T02:40:51;16.70;98.40
25200;DHT22;33094;48.782;9.162;2023-06-24T02:43:17;16.60;98.50
25200;DHT22;33094;48.782;9.162;2023-06-24T02:45:42;16.70;98.60
25200;DHT22;33094;48.782;9.162;2023-06-24T02:48:09;16.70;98.60
25200;DHT22;33094;48.782;9.162;2023-06-24T02:50:35;16.60;98.60
25200;DHT22;33094;48.782;9.162;2023-06-24T02:53:02;16.60;98.80
25200;DHT22;33094;48.782;9.162;2023-06-24T02:55:28;16.60;98.80
25200;DHT22;33094;48.782;9.162;2023-06-24T02:57:54;16.60;98.90
25200;DHT22;33094;48.782;9.162;2023-06-24T03:00:20;16.50;98.90
25200;DHT22;33094;48.782;9.162;2023-06-24T03:02:46;16.50;98.90
25200;DHT22;33094;48.782;9.162;2023-06-24T03:05:12;16.50;99.00
25200;DHT22;33094;48.782;9.162;2023-06-24T03:07:37;16.40;99.10
25200;DHT22;33094;48.782;9.162;2023-06-24T03:10:04;16.50;99.10
25200;DHT22;33094;48.782;9.162;2023-06-24T03:12:31;16.50;99.10
25200;DHT22;33094;48.782;9.162;2023-06-24T03:14:56;16.70;99.00
25200;DHT22;33094;48.782;9.162;2023-06-24T03:17:22;16.70;99.00
25200;DHT22;33094;48.782;9.162;2023-06-24T03:19:47;16.60;98.90
25200;DHT22;33094;48.782;9.162;2023-06-24T03:22:13;16.60;99.00
25200;DHT22;33094;48.782;9.162;2023-06-24T03:24:38;16.60;99.00
25200;DHT22;33094;48.782;9.162;2023-06-24T03:27:04;16.50;99.00
25200;DHT22;33094;48.782;9.162;2023-06-24T03:29:29;16.50;99.10
25200;DHT22;33094;48.782;9.162;2023-06-24T03:31:55;16.50;99.10
25200;DHT22;33094;48.782;9.162;2023-06-24T03:34:21;16.40;99.20
25200;DHT22;33094;48.782;9.162;2023-06-24T03:36:46;16.50;99.20
25200;DHT22;33094;48.782;9.162;2023-06-24T03:39:12;16.40;99.30
25200;DHT22;33094;48.782;9.162;2023-06-24T03:41:37;16.50;99.20
25200;DHT22;33094;48.782;9.162;2023-06-24T03:44:04;16.70;99.10
25200;DHT22;33094;48.782;9.162;2023-06-24T03:46:30;16.80;98.80
25200;DHT22;33094;48.782;9.162;2023-06-24T03:48:58;17.00;98.50
25200;DHT22;33094;48.782;9.162;2023-06-24T03:51:23;17.10;98.30
25200;DHT22;33094;48.782;9.162;2023-06-24T03:53:49;16.90;98.40
25200;DHT22;33094;48.782;9.162;2023-06-24T03:56:15;17.00;98.60
25200;DHT22;33094;48.782;9.162;2023-06-24T03:58:41;16.80;98.70
25200;DHT22;33094;48.782;9.162;2023-06-24T04:01:06;16.50;99.00
25200;DHT22;33094;48.782;9.162;2023-06-24T04:03:32;16.50;99.40
25200;DHT22;33094;48.782;9.162;2023-06-24T04:05:57;16.70;99.20
25200;DHT22;33094;48.782;9.162;2023-06-24T04:08:23;16.70;99.00
25200;DHT22;33094;48.782;9.162;2023-06-24T04:10:57;16.60;98.70
25200;DHT22;33094;48.782;9.162;2023-06-24T04:13:25;16.80;98.80
25200;DHT22;33094;48.782;9.162;2023-06-24T04:15:51;16.80;98.60
25200;DHT22;33094;48.782;9.162;2023-06-24T04:18:17;16.70;99.00
25200;DHT22;33094;48.782;9.162;2023-06-24T04:20:42;16.90;98.70
25200;DHT22;33094;48.782;9.162;2023-06-24T04:23:08;17.00;98.70
25200;DHT22;33094;48.782;9.162;2023-06-24T04:25:36;17.20;98.30
25200;DHT22;33094;48.782;9.162;2023-06-24T04:28:02;17.20;98.30
25200;DHT22;33094;48.782;9.162;2023-06-24T04:30:27;17.10;98.40
25200;DHT22;33094;48.782;9.162;2023-06-24T04:32:53;17.20;98.40
25200;DHT22;33094;48.782;9.162;2023-06-24T04:35:18;17.00;98.30
25200;DHT22;33094;48.782;9.162;2023-06-24T04:37:44;17.20;98.10
25200;DHT22;33094;48.782;9.162;2023-06-24T04:40:09;17.10;98.20
25200;DHT22;33094;48.782;9.162;2023-06-24T04:42:35;17.10;98.20
25200;DHT22;33094;48.782;9.162;2023-06-24T04:45:01;17.10;98.10
25200;DHT22;33094;48.782;9.162;2023-06-24T04:47:30;17.20;98.10
25200;DHT22;33094;48.782;9.162;2023-06-24T04:49:56;17.30;98.00
25200;DHT22;33094;48.782;9.162;2023-06-24T04:52:23;17.30;98.00
25200;DHT22;33094;48.782;9.162;2023-06-24T04:54:48;17.40;97.90
25200;DHT22;33094;48.782;9.162;2023-06-24T04:57:24;17.50;97.90
25200;DHT22;33094;48.782;9.162;2023-06-24T04:59:49;17.40;97.90
25200;DHT22;33094;48.782;9.162;2023-06-24T05:02:15;17.40;97.90
25200;DHT22;33094;48.782;9.162;2023-06-24T05:04:41;17.50;97.90
25200;DHT22;33094;48.782;9.162;2023-06-24T05:07:06;17.50;98.10
25200;DHT22;33094;48.782;9.162;2023-06-24T05:09:41;17.70;97.70
25200;DHT22;33094;48.782;9.162;2023-06-24T05:12:08;17.70;97.30
25200;DHT22;33094;48.782;9.162;2023-06-24T05:14:34;17.80;97.40
25200;DHT22;33094;48.782;9.162;2023-06-24T05:16:59;17.90;97.60
25200;DHT22;33094;48.782;9.162;2023-06-24T05:19:25;18.10;97.30
25200;DHT22;33094;48.782;9.162;2023-06-24T05:21:51;18.20;97.10
25200;DHT22;33094;48.782;9.162;2023-06-24T05:24:16;18.20;96.90
25200;DHT22;33094;48.782;9.162;2023-06-24T05:26:42;18.20;96.90
25200;DHT22;33094;48.782;9.162;2023-06-24T05:29:07;18.40;96.90
25200;DHT22;33094;48.782;9.162;2023-06-24T05:31:33;18.50;96.50
25200;DHT22;33094;48.782;9.162;2023-06-24T05:33:58;18.40;96.80
25200;DHT22;33094;48.782;9.162;2023-06-24T05:36:24;18.50;96.70
25200;DHT22;33094;48.782;9.162;2023-06-24T05:38:49;18.60;96.60
25200;DHT22;33094;48.782;9.162;2023-06-24T05:41:15;18.60;96.60
25200;DHT22;33094;48.782;9.162;2023-06-24T05:43:42;18.60;96.70
25200;DHT22;33094;48.782;9.162;2023-06-24T05:46:08;18.60;96.50
25200;DHT22;33094;48.782;9.162;2023-06-24T05:48:33;18.60;96.40
25200;DHT22;33094;48.782;9.162;2023-06-24T05:50:59;18.70;96.50
25200;DHT22;33094;48.782;9.162;2023-06-24T05:53:24;18.70;96.50
25200;DHT22;33094;48.782;9.162;2023-06-24T05:55:50;18.90;96.30
25200;DHT22;33094;48.782;9.162;2023-06-24T05:58:15;19.20;96.00
25200;DHT22;33094;48.782;9.162;2023-06-24T06:00:41;19.20;95.90
25200;DHT22;33094;48.782;9.162;2023-06-24T06:03:06;19.60;95.60
25200;DHT22;33094;48.782;9.162;2023-06-24T06:05:32;19.90;94.80
25200;DHT22;33094;48.782;9.162;2023-06-24T06:07:57;20.20;94.60
25200;DHT22;33094;48.782;9.162;2023-06-24T06:10:23;20.50;94.20
25200;DHT22;33094;48.782;9.162;2023-06-24T06:12:48;21.60;93.30
25200;DHT22;33094;48.782;9.162;2023-06-24T06:15:14;21.40;92.50
25200;DHT22;33094;48.782;9.162;2023-06-24T06:17:40;22.10;92.60
25200;DHT22;33094;48.782;9.162;2023-06-24T06:20:06;22.40;91.70
25200;DHT22;33094;48.782;9.162;2023-06-24T06:22:32;23.10;91.30
25200;DHT22;33094;48.782;9.162;2023-06-24T06:25:02;23.60;90.80
25200;DHT22;33094;48.782;9.162;2023-06-24T06:27:28;23.70;90.10
25200;DHT22;33094;48.782;9.162;2023-06-24T06:29:53;23.30;90.90
25200;DHT22;33094;48.782;9.162;2023-06-24T06:32:19;21.90;91.00
25200;DHT22;33094;48.782;9.162;2023-06-24T06:34:44;21.40;92.00
25200;DHT22;33094;48.782;9.162;2023-06-24T06:37:10;20.80;92.70
25200;DHT22;33094;48.782;9.162;2023-06-24T06:39:35;21.00;92.60
25200;DHT22;33094;48.782;9.162;2023-06-24T06:42:01;21.00;92.80
25200;DHT22;33094;48.782;9.162;2023-06-24T06:44:26;21.10;92.00
25200;DHT22;33094;48.782;9.162;2023-06-24T06:46:52;20.90;92.50
25200;DHT22;33094;48.782;9.162;2023-06-24T06:49:17;20.80;92.60
25200;DHT22;33094;48.782;9.162;2023-06-24T06:51:43;20.70;92.00
25200;DHT22;33094;48.782;9.162;2023-06-24T06:54:08;20.80;92.00
25200;DHT22;33094;48.782;9.162;2023-06-24T06:56:34;20.90;92.00
25200;DHT22;33094;48.782;9.162;2023-06-24T06:58:59;20.90;92.00
25200;DHT22;33094;48.782;9.162;2023-06-24T07:01:25;21.10;91.80
25200;DHT22;33094;48.782;9.162;2023-06-24T07:03:50;20.80;91.80
25200;DHT22;33094;48.782;9.162;2023-06-24T07:06:19;20.80;91.90
25200;DHT22;33094;48.782;9.162;2023-06-24T07:08:45;21.00;91.50
25200;DHT22;33094;48.782;9.162;2023-06-24T07:11:11;21.10;91.20
25200;DHT22;33094;48.782;9.162;2023-06-24T07:13:36;21.20;91.30
25200;DHT22;33094;48.782;9.162;2023-06-24T07:16:02;21.20;91.10
25200;DHT22;33094;48.782;9.162;2023-06-24T07:18:27;21.50;91.30
25200;DHT22;33094;48.782;9.162;2023-06-24T07:20:55;21.70;91.10
25200;DHT22;33094;48.782;9.162;2023-06-24T07:23:21;21.80;90.80
25200;DHT22;33094;48.782;9.162;2023-06-24T07:25:47;21.90;90.80
25200;DHT22;33094;48.782;9.162;2023-06-24T07:28:12;21.80;90.50
25200;DHT22;33094;48.782;9.162;2023-06-24T07:30:37;21.90;90.70
25200;DHT22;33094;48.782;9.162;2023-06-24T07:33:03;22.10;90.30
25200;DHT22;33094;48.782;9.162;2023-06-24T07:35:31;22.20;89.90
25200;DHT22;33094;48.782;9.162;2023-06-24T07:37:57;22.10;89.50
25200;DHT22;33094;48.782;9.162;2023-06-24T07:40:23;22.20;90.10
25200;DHT22;33094;48.782;9.162;2023-06-24T07:42:48;22.40;89.90
25200;DHT22;33094;48.782;9.162;2023-06-24T07:45:14;22.30;90.00
25200;DHT22;33094;48.782;9.162;2023-06-24T07:47:39;22.30;89.60
25200;DHT22;33094;48.782;9.162;2023-06-24T07:50:05;22.60;89.80
25200;DHT22;33094;48.782;9.162;2023-06-24T07:52:31;22.90;89.40
25200;DHT22;33094;48.782;9.162;2023-06-24T07:54:57;23.00;89.20
25200;DHT22;33094;48.782;9.162;2023-06-24T07:57:22;23.20;88.50
25200;DHT22;33094;48.782;9.162;2023-06-24T07:59:48;23.40;88.50
25200;DHT22;33094;48.782;9.162;2023-06-24T08:02:13;23.50;88.50
25200;DHT22;33094;48.782;9.162;2023-06-24T08:04:39;23.50;88.80
25200;DHT22;33094;48.782;9.162;2023-06-24T08:07:04;23.40;88.60
25200;DHT22;33094;48.782;9.162;2023-06-24T08:09:30;23.40;88.10
25200;DHT22;33094;48.782;9.162;2023-06-24T08:11:55;23.30;88.30
25200;DHT22;33094;48.782;9.162;2023-06-24T08:14:21;23.40;88.30
25200;DHT22;33094;48.782;9.162;2023-06-24T08:16:46;23.50;87.20
25200;DHT22;33094;48.782;9.162;2023-06-24T08:19:12;23.70;87.20
25200;DHT22;33094;48.782;9.162;2023-06-24T08:21:37;24.00;86.80
25200;DHT22;33094;48.782;9.162;2023-06-24T08:24:04;24.70;85.70
25200;DHT22;33094;48.782;9.162;2023-06-24T08:26:29;24.80;85.00
25200;DHT22;33094;48.782;9.162;2023-06-24T08:28:55;26.00;82.90
25200;DHT22;33094;48.782;9.162;2023-06-24T08:31:21;26.40;81.50
25200;DHT22;33094;48.782;9.162;2023-06-24T08:33:51;27.30;79.80
25200;DHT22;33094;48.782;9.162;2023-06-24T08:36:17;28.00;78.90
25200;DHT22;33094;48.782;9.162;2023-06-24T08:38:42;28.10;78.20
25200;DHT22;33094;48.782;9.162;2023-06-24T08:41:08;27.60;78.10
25200;DHT22;33094;48.782;9.162;2023-06-24T08:43:33;27.10;78.70
25200;DHT22;33094;48.782;9.162;2023-06-24T08:45:59;27.40;78.10
25200;DHT22;33094;48.782;9.162;2023-06-24T08:48:24;27.10;77.60
25200;DHT22;33094;48.782;9.162;2023-06-24T08:50:51;27.80;77.90
25200;DHT22;33094;48.782;9.162;2023-06-24T08:53:18;28.40;77.30
25200;DHT22;33094;48.782;9.162;2023-06-24T08:55:44;28.20;76.20
25200;DHT22;33094;48.782;9.162;2023-06-24T08:58:10;28.80;75.80
25200;DHT22;33094;48.782;9.162;2023-06-24T09:00:36;28.50;75.10
25200;DHT22;33094;48.782;9.162;2023-06-24T09:03:04;27.60;76.70
25200;DHT22;33094;48.782;9.162;2023-06-24T09:05:32;26.90;76.80
25200;DHT22;33094;48.782;9.162;2023-06-24T09:07:58;28.40;75.00
25200;DHT22;33094;48.782;9.162;2023-06-24T09:10:34;29.60;73.50
25200;DHT22;33094;48.782;9.162;2023-06-24T09:13:00;30.60;71.30
25200;DHT22;33094;48.782;9.162;2023-06-24T09:15:29;31.30;69.30
25200;DHT22;33094;48.782;9.162;2023-06-24T09:17:55;31.60;69.10
25200;DHT22;33094;48.782;9.162;2023-06-24T09:20:20;31.50;68.40
25200;DHT22;33094;48.782;9.162;2023-06-24T09:22:48;32.00;68.60
25200;DHT22;33094;48.782;9.162;2023-06-24T09:25:17;32.20;67.10
25200;DHT22;33094;48.782;9.162;2023-06-24T09:27:49;32.60;67.60
25200;DHT22;33094;48.782;9.162;2023-06-24T09:30:18;32.70;65.90
25200;DHT22;33094;48.782;9.162;2023-06-24T09:32:48;29.20;67.70
25200;DHT22;33094;48.782;9.162;2023-06-24T09:36:14;30.20;68.90
25200;DHT22;33094;48.782;9.162;2023-06-24T09:38:14;30.80;68.60
25200;DHT22;33094;48.782;9.162;2023-06-24T09:41:01;30.70;68.90
25200;DHT22;33094;48.782;9.162;2023-06-24T09:43:30;30.20;68.10
25200;DHT22;33094;48.782;9.162;2023-06-24T09:46:00;31.00;67.90
25200;DHT22;33094;48.782;9.162;2023-06-24T09:51:14;32.00;66.70
25200;DHT22;33094;48.782;9.162;2023-06-24T09:53:40;30.70;67.40
25200;DHT22;33094;48.782;9.162;2023-06-24T09:56:09;29.00;69.80
25200;DHT22;33094;48.782;9.162;2023-06-24T09:58:35;29.80;69.70
25200;DHT22;33094;48.782;9.162;2023-06-24T10:01:03;31.40;67.40
25200;DHT22;33094;48.782;9.162;2023-06-24T10:03:36;31.70;67.70
25200;DHT22;33094;48.782;9.162;2023-06-24T10:06:02;32.30;66.40
25200;DHT22;33094;48.782;9.162;2023-06-24T10:08:29;32.60;65.60
25200;DHT22;33094;48.782;9.162;2023-06-24T10:10:55;31.60;67.00
25200;DHT22;33094;48.782;9.162;2023-06-24T10:13:20;30.70;67.20
25200;DHT22;33094;48.782;9.162;2023-06-24T10:15:46;28.90;70.00
25200;DHT22;33094;48.782;9.162;2023-06-24T10:21:14;31.00;68.10
25200;DHT22;33094;48.782;9.162;2023-06-24T10:23:41;28.40;70.40
25200;DHT22;33094;48.782;9.162;2023-06-24T10:26:10;27.90;71.40
25200;DHT22;33094;48.782;9.162;2023-06-24T10:34:43;30.20;66.40
25200;DHT22;33094;48.782;9.162;2023-06-24T10:40:36;29.90;67.10
25200;DHT22;33094;48.782;9.162;2023-06-24T10:43:04;30.40;65.60
25200;DHT22;33094;48.782;9.162;2023-06-24T10:52:07;32.60;61.60
25200;DHT22;33094;48.782;9.162;2023-06-24T11:08:13;32.70;62.00
25200;DHT22;33094;48.782;9.162;2023-06-24T11:14:12;30.40;64.70
25200;DHT22;33094;48.782;9.162;2023-06-24T11:16:42;32.10;61.90
25200;DHT22;33094;48.782;9.162;2023-06-24T11:19:08;31.70;61.60
25200;DHT22;33094;48.782;9.162;2023-06-24T11:30:38;32.20;61.10
25200;DHT22;33094;48.782;9.162;2023-06-24T11:33:29;30.80;62.10
25200;DHT22;33094;48.782;9.162;2023-06-24T11:38:49;33.00;60.80
25200;DHT22;33094;48.782;9.162;2023-06-24T11:41:32;33.20;60.40
25200;DHT22;33094;48.782;9.162;2023-06-24T11:44:05;33.20;61.30
25200;DHT22;33094;48.782;9.162;2023-06-24T11:49:08;33.90;58.90
25200;DHT22;33094;48.782;9.162;2023-06-24T11:54:46;34.40;57.90
25200;DHT22;33094;48.782;9.162;2023-06-24T11:57:18;33.00;57.80
25200;DHT22;33094;48.782;9.162;2023-06-24T12:00:37;33.60;58.30
25200;DHT22;33094;48.782;9.162;2023-06-24T12:22:00;34.30;58.90
25200;DHT22;33094;48.782;9.162;2023-06-24T12:27:35;32.20;59.40
25200;DHT22;33094;48.782;9.162;2023-06-24T12:30:00;32.20;60.40
25200;DHT22;33094;48.782;9.162;2023-06-24T12:32:26;31.50;61.00
25200;DHT22;33094;48.782;9.162;2023-06-24T12:34:52;29.00;64.90
25200;DHT22;33094;48.782;9.162;2023-06-24T12:37:18;29.00;65.10
25200;DHT22;33094;48.782;9.162;2023-06-24T12:39:44;28.70;65.30
25200;DHT22;33094;48.782;9.162;2023-06-24T12:42:10;28.90;66.20
25200;DHT22;33094;48.782;9.162;2023-06-24T12:47:56;31.70;62.00
25200;DHT22;33094;48.782;9.162;2023-06-24T12:50:40;31.20;61.60
25200;DHT22;33094;48.782;9.162;2023-06-24T12:53:13;30.70;61.80
25200;DHT22;33094;48.782;9.162;2023-06-24T12:55:42;32.20;60.80
25200;DHT22;33094;48.782;9.162;2023-06-24T12:58:26;31.60;60.70
25200;DHT22;33094;48.782;9.162;2023-06-24T13:00:52;30.10;61.50
25200;DHT22;33094;48.782;9.162;2023-06-24T13:03:18;30.30;62.70
25200;DHT22;33094;48.782;9.162;2023-06-24T13:05:43;32.10;60.90
25200;DHT22;33094;48.782;9.162;2023-06-24T13:08:09;31.40;60.50
25200;DHT22;33094;48.782;9.162;2023-06-24T13:10:36;31.80;60.20
25200;DHT22;33094;48.782;9.162;2023-06-24T13:13:02;32.30;59.50
25200;DHT22;33094;48.782;9.162;2023-06-24T13:15:28;31.90;59.60
25200;DHT22;33094;48.782;9.162;2023-06-24T13:17:53;31.50;59.70
25200;DHT22;33094;48.782;9.162;2023-06-24T13:20:19;29.30;62.50
25200;DHT22;33094;48.782;9.162;2023-06-24T13:22:44;29.80;62.70
25200;DHT22;33094;48.782;9.162;2023-06-24T13:25:10;30.30;62.30
25200;DHT22;33094;48.782;9.162;2023-06-24T13:27:36;30.20;62.50
25200;DHT22;33094;48.782;9.162;2023-06-24T13:30:01;29.60;63.90
25200;DHT22;33094;48.782;9.162;2023-06-24T13:32:29;30.10;63.30
25200;DHT22;33094;48.782;9.162;2023-06-24T13:34:54;29.90;62.50
25200;DHT22;33094;48.782;9.162;2023-06-24T13:37:20;29.90;62.60
25200;DHT22;33094;48.782;9.162;2023-06-24T13:39:46;29.90;62.60
25200;DHT22;33094;48.782;9.162;2023-06-24T13:42:12;28.80;63.40
25200;DHT22;33094;48.782;9.162;2023-06-24T13:44:38;29.20;63.90
25200;DHT22;33094;48.782;9.162;2023-06-24T13:47:04;29.70;63.40
25200;DHT22;33094;48.782;9.162;2023-06-24T13:49:29;29.80;63.20
25200;DHT22;33094;48.782;9.162;2023-06-24T13:51:55;29.10;63.20
25200;DHT22;33094;48.782;9.162;2023-06-24T13:54:20;29.10;64.60
25200;DHT22;33094;48.782;9.162;2023-06-24T13:56:46;29.50;63.90
25200;DHT22;33094;48.782;9.162;2023-06-24T13:59:12;29.70;63.70
25200;DHT22;33094;48.782;9.162;2023-06-24T14:01:37;29.80;63.50
25200;DHT22;33094;48.782;9.162;2023-06-24T14:04:03;30.00;63.90
25200;DHT22;33094;48.782;9.162;2023-06-24T14:06:28;30.10;63.50
25200;DHT22;33094;48.782;9.162;2023-06-24T14:08:54;30.10;63.80
25200;DHT22;33094;48.782;9.162;2023-06-24T14:11:20;30.10;63.50
25200;DHT22;33094;48.782;9.162;2023-06-24T14:13:45;30.20;63.60
25200;DHT22;33094;48.782;9.162;2023-06-24T14:16:11;30.10;63.80
25200;DHT22;33094;48.782;9.162;2023-06-24T14:18:37;29.60;64.30
25200;DHT22;33094;48.782;9.162;2023-06-24T14:21:08;29.60;64.40
25200;DHT22;33094;48.782;9.162;2023-06-24T14:23:34;29.60;64.90
25200;DHT22;33094;48.782;9.162;2023-06-24T14:26:00;29.70;64.70
25200;DHT22;33094;48.782;9.162;2023-06-24T14:28:26;29.80;64.70
25200;DHT22;33094;48.782;9.162;2023-06-24T14:30:52;29.70;64.80
25200;DHT22;33094;48.782;9.162;2023-06-24T14:33:17;29.70;65.10
25200;DHT22;33094;48.782;9.162;2023-06-24T14:35:45;29.90;64.70
25200;DHT22;33094;48.782;9.162;2023-06-24T14:38:11;29.80;64.40
25200;DHT22;33094;48.782;9.162;2023-06-24T14:40:37;29.90;64.30
25200;DHT22;33094;48.782;9.162;2023-06-24T14:43:02;29.80;64.50
25200;DHT22;33094;48.782;9.162;2023-06-24T14:45:28;29.80;64.60
25200;DHT22;33094;48.782;9.162;2023-06-24T14:47:53;29.60;64.60
25200;DHT22;33094;48.782;9.162;2023-06-24T14:50:19;29.50;65.00
25200;DHT22;33094;48.782;9.162;2023-06-24T14:52:45;29.70;64.60
25200;DHT22;33094;48.782;9.162;2023-06-24T14:55:10;29.60;64.20
25200;DHT22;33094;48.782;9.162;2023-06-24T14:57:36;29.50;64.40
25200;DHT22;33094;48.782;9.162;2023-06-24T15:00:03;29.20;64.60
25200;DHT22;33094;48.782;9.162;2023-06-24T15:02:29;28.80;64.80
25200;DHT22;33094;48.782;9.162;2023-06-24T15:04:54;28.90;65.60
25200;DHT22;33094;48.782;9.162;2023-06-24T15:07:20;29.10;64.70
25200;DHT22;33094;48.782;9.162;2023-06-24T15:09:45;28.70;65.50
25200;DHT22;33094;48.782;9.162;2023-06-24T15:12:11;29.00;65.00
25200;DHT22;33094;48.782;9.162;2023-06-24T15:14:37;29.30;64.90
25200;DHT22;33094;48.782;9.162;2023-06-24T15:17:03;29.40;64.90
25200;DHT22;33094;48.782;9.162;2023-06-24T15:19:28;29.30;65.10
25200;DHT22;33094;48.782;9.162;2023-06-24T15:21:54;29.10;65.00
25200;DHT22;33094;48.782;9.162;2023-06-24T15:24:19;28.30;66.30
25200;DHT22;33094;48.782;9.162;2023-06-24T15:26:45;28.50;65.90
25200;DHT22;33094;48.782;9.162;2023-06-24T15:29:10;28.80;66.20
25200;DHT22;33094;48.782;9.162;2023-06-24T15:31:36;29.00;65.50
25200;DHT22;33094;48.782;9.162;2023-06-24T15:34:01;29.00;64.90
25200;DHT22;33094;48.782;9.162;2023-06-24T15:36:27;29.00;65.40
25200;DHT22;33094;48.782;9.162;2023-06-24T15:38:54;28.70;65.00
25200;DHT22;33094;48.782;9.162;2023-06-24T15:41:20;28.90;66.50
25200;DHT22;33094;48.782;9.162;2023-06-24T15:43:45;28.90;64.90
25200;DHT22;33094;48.782;9.162;2023-06-24T15:46:11;29.00;65.80
25200;DHT22;33094;48.782;9.162;2023-06-24T15:48:37;28.90;65.30
25200;DHT22;33094;48.782;9.162;2023-06-24T15:51:02;28.60;66.60
25200;DHT22;33094;48.782;9.162;2023-06-24T15:53:28;28.80;65.90
25200;DHT22;33094;48.782;9.162;2023-06-24T15:55:54;28.60;65.20
25200;DHT22;33094;48.782;9.162;2023-06-24T15:58:19;28.40;65.90
25200;DHT22;33094;48.782;9.162;2023-06-24T16:00:45;28.70;65.80
25200;DHT22;33094;48.782;9.162;2023-06-24T16:03:10;29.10;65.30
25200;DHT22;33094;48.782;9.162;2023-06-24T16:05:36;29.10;65.50
25200;DHT22;33094;48.782;9.162;2023-06-24T16:08:02;29.00;65.70
25200;DHT22;33094;48.782;9.162;2023-06-24T16:10:28;29.10;66.10
25200;DHT22;33094;48.782;9.162;2023-06-24T16:12:53;29.10;65.70
25200;DHT22;33094;48.782;9.162;2023-06-24T16:15:20;29.00;65.70
25200;DHT22;33094;48.782;9.162;2023-06-24T16:17:45;29.10;66.30
25200;DHT22;33094;48.782;9.162;2023-06-24T16:20:11;29.10;65.80
25200;DHT22;33094;48.782;9.162;2023-06-24T16:22:41;29.20;66.00
25200;DHT22;33094;48.782;9.162;2023-06-24T16:25:07;29.10;65.50
25200;DHT22;33094;48.782;9.162;2023-06-24T16:27:33;28.70;65.80
25200;DHT22;33094;48.782;9.162;2023-06-24T16:29:58;28.70;66.10
25200;DHT22;33094;48.782;9.162;2023-06-24T16:32:24;28.90;65.20
25200;DHT22;33094;48.782;9.162;2023-06-24T16:34:49;28.80;65.30
25200;DHT22;33094;48.782;9.162;2023-06-24T16:37:15;28.70;65.50
25200;DHT22;33094;48.782;9.162;2023-06-24T16:39:40;28.90;65.40
25200;DHT22;33094;48.782;9.162;2023-06-24T16:42:06;28.90;65.30
25200;DHT22;33094;48.782;9.162;2023-06-24T16:44:31;28.90;65.70
25200;DHT22;33094;48.782;9.162;2023-06-24T16:47:01;29.00;65.90
25200;DHT22;33094;48.782;9.162;2023-06-24T16:49:27;28.70;65.90
25200;DHT22;33094;48.782;9.162;2023-06-24T16:51:52;28.80;66.00
25200;DHT22;33094;48.782;9.162;2023-06-24T16:54:18;28.70;65.80
25200;DHT22;33094;48.782;9.162;2023-06-24T16:56:44;28.70;65.90
25200;DHT22;33094;48.782;9.162;2023-06-24T16:59:10;28.70;66.20
25200;DHT22;33094;48.782;9.162;2023-06-24T17:01:35;28.80;66.30
25200;DHT22;33094;48.782;9.162;2023-06-24T17:04:01;28.70;66.00
25200;DHT22;33094;48.782;9.162;2023-06-24T17:06:26;28.70;66.20
25200;DHT22;33094;48.782;9.162;2023-06-24T17:08:52;28.70;66.00
25200;DHT22;33094;48.782;9.162;2023-06-24T17:11:18;28.60;66.20
25200;DHT22;33094;48.782;9.162;2023-06-24T17:13:43;28.50;65.60
25200;DHT22;33094;48.782;9.162;2023-06-24T17:16:09;28.60;65.60
25200;DHT22;33094;48.782;9.162;2023-06-24T17:18:34;28.60;65.10
25200;DHT22;33094;48.782;9.162;2023-06-24T17:21:00;28.50;65.00
25200;DHT22;33094;48.782;9.162;2023-06-24T17:23:25;28.40;65.10
25200;DHT22;33094;48.782;9.162;2023-06-24T17:25:51;28.40;65.50
25200;DHT22;33094;48.782;9.162;2023-06-24T17:28:16;28.40;65.50
25200;DHT22;33094;48.782;9.162;2023-06-24T17:30:42;28.40;65.70